Time;durP1;ratioP1;P1;durP2;ratioP2;P2;SDS_P1;SDS_P2;PMS_P1;PMS_P2;Temp;Humidity;BMP_temperature;BMP_pressure;BME280_temperature;BME280_humidity;BME280_pressure;Samples;Min_cycle;Max_cycle;Signal;HPM_P1;HPM_P2
2021/04/21 00:04:58;;;;;;;5.75;3.63;;;;;;;;;;10240091;28;19968;-64
2021/04/21 00:09:55;;;;;;;6.97;4.60;;;;;;;;;;10251529;28;20048;-65
2021/04/21 00:14:53;;;;;;;8.50;4.53;;;;;;;;;;10253460;28;20149;-65
2021/04/21 00:19:52;;;;;;;9.57;4.30;;;;;;;;;;10256624;28;20030;-66
2021/04/21 00:24:51;;;;;;;9.52;4.60;;;;;;;;;;10245847;28;20034;-64
2021/04/21 00:29:49;;;;;;;12.88;5.65;;;;;;;;;;10246621;28;20699;-64
2021/04/21 00:34:48;;;;;;;6.90;4.85;;;;;;;;;;10242701;28;20536;-64
2021/04/21 00:39:45;;;;;;;11.95;5.35;;;;;;;;;;10241577;28;20487;-64
2021/04/21 00:44:59;;;;;;;9.20;5.63;;;;;;;;;;10242674;28;20410;-63
2021/04/21 00:50:11;;;;;;;8.57;5.85;;;;;;;;;;10246705;28;20053;-64
2021/04/21 00:55:22;;;;;;;9.50;5.40;;;;;;;;;;10236427;28;20033;-64
2021/04/21 01:00:20;;;;;;;;;;;;;;;;;;10252602;28;20038;-62
2021/04/21 01:05:42;;;;;;;11.85;5.45;;;;;;;;;;10234455;28;20324;-63
2021/04/21 01:10:43;;;;;;;11.02;4.97;;;;;;;;;;10231984;28;20040;-65
2021/04/21 01:15:41;;;;;;;7.57;5.43;;;;;;;;;;10241917;28;20515;-64
2021/04/21 01:20:41;;;;;;;6.32;5.10;;;;;;;;;;10243744;28;20054;-67
2021/04/21 01:26:14;;;;;;;11.23;5.00;;;;;;;;;;10238483;28;20042;-66
2021/04/21 01:31:13;;;;;;;10.80;5.55;;;;;;;;;;10195110;28;20030;-67
2021/04/21 01:36:10;;;;;;;;;;;;;;;;;;10221248;28;20455;-66
2021/04/21 01:41:10;;;;;;;10.83;6.80;;;;;;;;;;10242155;28;19918;-66
2021/04/21 01:46:09;;;;;;;9.48;6.25;;;;;;;;;;10238123;28;20032;-66
2021/04/21 01:51:14;;;;;;;9.02;5.72;;;;;;;;;;10250696;28;20038;-66
2021/04/21 01:56:11;;;;;;;10.77;6.05;;;;;;;;;;10254086;28;20515;-66
2021/04/21 02:01:16;;;;;;;9.07;5.80;;;;;;;;;;10251453;28;20387;-64
2021/04/21 02:06:13;;;;;;;7.63;5.22;;;;;;;;;;10241139;28;20066;-64
2021/04/21 02:11:19;;;;;;;10.17;5.43;;;;;;;;;;10248895;28;20061;-62
2021/04/21 02:16:23;;;;;;;8.27;5.65;;;;;;;;;;10246890;28;20026;-64
2021/04/21 02:21:26;;;;;;;11.63;6.78;;;;;;;;;;10248346;28;20589;-64
2021/04/21 02:26:35;;;;;;;11.23;6.43;;;;;;;;;;10246774;28;20038;-64
2021/04/21 02:31:39;;;;;;;14.23;6.72;;;;;;;;;;10254051;28;20487;-65
2021/04/21 02:36:41;;;;;;;9.48;6.30;;;;;;;;;;10250661;28;20491;-65
2021/04/21 02:41:43;;;;;;;9.23;5.80;;;;;;;;;;10263304;28;20050;-65
2021/04/21 02:46:59;;;;;;;10.65;6.50;;;;;;;;;;10239444;28;20030;-64
2021/04/21 02:51:57;;;;;;;9.05;6.00;;;;;;;;;;10251979;28;20059;-65
2021/04/21 02:56:56;;;;;;;8.83;6.07;;;;;;;;;;10262104;28;20038;-66
2021/04/21 03:01:54;;;;;;;9.60;6.07;;;;;;;;;;10258762;28;20026;-64
2021/04/21 03:06:53;;;;;;;11.65;6.45;;;;;;;;;;10253631;28;20041;-64
2021/04/21 03:11:53;;;;;;;11.10;6.22;;;;;;;;;;10235369;28;20034;-65
2021/04/21 03:17:00;;;;;;;8.15;5.72;;;;;;;;;;10253055;28;20111;-63
2021/04/21 03:21:59;;;;;;;5.82;3.20;;;;;;;;;;10240930;28;20042;-65
2021/04/21 03:26:59;;;;;;;6.10;4.57;;;;;;;;;;10246056;28;20042;-65
2021/04/21 03:31:59;;;;;;;4.88;1.80;;;;;;;;;;10235039;28;20467;-65
2021/04/21 03:36:57;;;;;;;5.78;3.72;;;;;;;;;;10230297;28;20052;-65
2021/04/21 03:41:55;;;;;;;6.20;4.33;;;;;;;;;;10241926;28;20046;-65
2021/04/21 03:46:52;;;;;;;12.23;5.10;;;;;;;;;;10249342;28;20034;-65
2021/04/21 03:51:49;;;;;;;6.77;3.53;;;;;;;;;;10242170;28;20037;-65
2021/04/21 03:56:47;;;;;;;11.47;5.03;;;;;;;;;;10246945;28;20048;-64
2021/04/21 04:01:46;;;;;;;8.27;5.77;;;;;;;;;;10243837;28;20037;-64
2021/04/21 04:06:43;;;;;;;;;;;;;;;;;;10224465;28;20059;-64
2021/04/21 04:11:43;;;;;;;6.05;4.55;;;;;;;;;;10241982;28;19921;-65
2021/04/21 04:16:41;;;;;;;8.38;5.30;;;;;;;;;;10260433;28;20069;-64
2021/04/21 04:21:40;;;;;;;6.53;4.75;;;;;;;;;;10245994;28;20557;-63
2021/04/21 04:26:40;;;;;;;8.70;6.22;;;;;;;;;;10250155;28;20042;-64
2021/04/21 04:31:39;;;;;;;9.80;6.40;;;;;;;;;;10248167;28;20389;-66
2021/04/21 04:36:36;;;;;;;;;;;;;;;;;;10243717;28;20030;-65
2021/04/21 04:41:35;;;;;;;11.90;8.23;;;;;;;;;;10249020;28;19917;-65
2021/04/21 04:46:36;;;;;;;8.13;4.90;;;;;;;;;;10250069;28;20045;-66
2021/04/21 04:51:36;;;;;;;2.72;2.45;;;;;;;;;;10254518;28;20103;-65
2021/04/21 04:56:34;;;;;;;10.02;4.50;;;;;;;;;;10250744;28;20564;-65
2021/04/21 05:01:38;;;;;;;12.93;5.03;;;;;;;;;;10245241;28;20053;-65
2021/04/21 05:06:37;;;;;;;7.57;5.65;;;;;;;;;;10246743;28;20091;-64
2021/04/21 05:11:36;;;;;;;12.73;7.47;;;;;;;;;;10244484;28;20052;-65
2021/04/21 05:16:52;;;;;;;6.40;2.67;;;;;;;;;;10228790;28;20197;-65
2021/04/21 05:21:56;;;;;;;2.47;2.28;;;;;;;;;;10239481;28;20756;-65
2021/04/21 05:27:11;;;;;;;2.42;1.35;;;;;;;;;;10230544;28;20159;-65
2021/04/21 05:32:27;;;;;;;4.32;2.25;;;;;;;;;;10249490;28;20562;-65
2021/04/21 05:37:40;;;;;;;8.20;3.25;;;;;;;;;;10237428;28;20129;-65
2021/04/21 05:42:56;;;;;;;6.47;3.08;;;;;;;;;;10230925;28;20034;-65
2021/04/21 05:47:53;;;;;;;8.00;4.70;;;;;;;;;;10237440;28;20058;-65
2021/04/21 05:52:57;;;;;;;7.73;4.53;;;;;;;;;;10241003;28;20632;-65
2021/04/21 05:58:13;;;;;;;12.32;5.93;;;;;;;;;;10240410;28;20514;-65
2021/04/21 06:03:10;;;;;;;11.38;6.53;;;;;;;;;;10248680;28;20038;-66
2021/04/21 06:08:09;;;;;;;11.87;5.80;;;;;;;;;;10260865;28;20054;-65
2021/04/21 06:13:07;;;;;;;14.02;6.30;;;;;;;;;;10233856;28;20026;-66
2021/04/21 06:18:06;;;;;;;11.75;6.55;;;;;;;;;;10242130;28;20169;-65
2021/04/21 06:23:18;;;;;;;15.85;7.78;;;;;;;;;;10254094;28;20030;-65
2021/04/21 06:28:15;;;;;;;14.27;7.45;;;;;;;;;;10254399;28;20391;-66
2021/04/21 06:33:13;;;;;;;23.43;9.33;;;;;;;;;;10253888;28;20026;-65
2021/04/21 06:38:11;;;;;;;17.63;8.63;;;;;;;;;;10220681;28;20117;-65
2021/04/21 06:43:08;;;;;;;16.73;8.37;;;;;;;;;;10250027;28;20030;-65
2021/04/21 06:48:08;;;;;;;21.13;10.47;;;;;;;;;;10240879;28;20412;-66
2021/04/21 06:53:07;;;;;;;19.73;8.07;;;;;;;;;;10244862;28;20030;-64
2021/04/21 06:58:04;;;;;;;;;;;;;;;;;;10204590;28;20042;-65
2021/04/21 07:03:02;;;;;;;27.77;11.65;;;;;;;;;;10248090;28;19917;-66
2021/04/21 07:08:06;;;;;;;27.60;11.30;;;;;;;;;;10261005;28;20042;-65
2021/04/21 07:13:04;;;;;;;22.17;9.90;;;;;;;;;;10250417;28;20034;-65
2021/04/21 07:18:02;;;;;;;23.48;10.80;;;;;;;;;;10240025;28;20038;-66
2021/04/21 07:22:59;;;;;;;25.33;10.50;;;;;;;;;;10308463;22;20057;-66
2021/04/21 07:27:57;;;;;;;22.03;7.47;;;;;;;;;;10252936;28;20144;-65
2021/04/21 07:32:55;;;;;;;23.87;9.70;;;;;;;;;;10250893;28;20045;-66
2021/04/21 07:37:55;;;;;;;12.93;5.20;;;;;;;;;;10219463;28;20049;-64
2021/04/21 07:43:06;;;;;;;12.57;6.18;;;;;;;;;;10222094;28;20050;-63
2021/04/21 07:48:04;;;;;;;9.93;5.20;;;;;;;;;;10240262;28;20042;-65
2021/04/21 07:53:01;;;;;;;11.80;5.43;;;;;;;;;;10232092;28;20054;-64
2021/04/21 07:58:01;;;;;;;10.00;5.07;;;;;;;;;;10248784;28;20101;-64
2021/04/21 08:03:00;;;;;;;9.50;4.35;;;;;;;;;;10250581;28;20022;-65
2021/04/21 08:08:02;;;;;;;7.35;4.05;;;;;;;;;;10246100;28;20408;-64
2021/04/21 08:13:00;;;;;;;10.20;3.13;;;;;;;;;;10247882;28;20034;-64
2021/04/21 08:18:04;;;;;;;4.67;2.77;;;;;;;;;;10243309;28;20037;-64
2021/04/21 08:23:02;;;;;;;7.82;2.03;;;;;;;;;;10249233;28;20037;-65
2021/04/21 08:28:01;;;;;;;1.67;1.30;;;;;;;;;;10284694;28;20131;-65
2021/04/21 08:32:58;;;;;;;5.32;1.90;;;;;;;;;;10330854;28;20072;-65
2021/04/21 08:37:56;;;;;;;3.93;1.30;;;;;;;;;;10330156;28;20037;-65
2021/04/21 08:42:54;;;;;;;2.57;1.17;;;;;;;;;;10312194;28;20085;-64
2021/04/21 08:47:54;;;;;;;1.58;1.00;;;;;;;;;;10327901;28;21120;-64
2021/04/21 08:52:56;;;;;;;1.80;1.00;;;;;;;;;;10327611;28;20037;-66
2021/04/21 08:57:55;;;;;;;3.60;0.80;;;;;;;;;;10302425;28;20040;-66
2021/04/21 09:02:52;;;;;;;3.30;1.00;;;;;;;;;;10312262;28;20435;-66
2021/04/21 09:07:50;;;;;;;3.47;0.90;;;;;;;;;;10322851;28;20048;-66
2021/04/21 09:12:47;;;;;;;4.13;0.90;;;;;;;;;;10326357;28;20037;-66
2021/04/21 09:17:50;;;;;;;1.07;0.50;;;;;;;;;;10327423;28;20087;-66
2021/04/21 09:23:18;;;;;;;1.98;0.70;;;;;;;;;;10311463;28;20041;-66
2021/04/21 09:28:20;;;;;;;1.63;0.57;;;;;;;;;;10327766;28;20044;-66
2021/04/21 09:33:18;;;;;;;4.03;0.82;;;;;;;;;;10336055;28;20033;-66
2021/04/21 09:38:17;;;;;;;3.78;0.80;;;;;;;;;;10328865;28;20086;-66
2021/04/21 09:43:19;;;;;;;0.95;0.85;;;;;;;;;;10312047;28;20129;-66
2021/04/21 09:48:18;;;;;;;4.25;0.93;;;;;;;;;;10305151;28;20087;-66
2021/04/21 09:53:23;;;;;;;4.28;0.70;;;;;;;;;;10306578;28;20040;-66
2021/04/21 09:58:27;;;;;;;7.50;1.08;;;;;;;;;;10317568;28;20543;-66
2021/04/21 10:03:25;;;;;;;0.30;0.30;;;;;;;;;;10310804;28;20595;-66
2021/04/21 10:08:24;;;;;;;2.93;0.87;;;;;;;;;;10324071;28;20380;-66
2021/04/21 10:13:21;;;;;;;8.30;0.60;;;;;;;;;;10326109;28;20029;-66
2021/04/21 10:18:22;;;;;;;0.60;0.53;;;;;;;;;;10327065;28;20280;-66
2021/04/21 10:23:20;;;;;;;1.95;0.68;;;;;;;;;;10302618;28;20123;-65
2021/04/21 10:28:18;;;;;;;3.87;0.97;;;;;;;;;;10315508;28;20028;-66
2021/04/21 10:33:15;;;;;;;2.33;1.27;;;;;;;;;;10339077;28;20467;-66
2021/04/21 10:38:14;;;;;;;1.40;0.50;;;;;;;;;;10324512;28;20029;-62
2021/04/21 10:43:11;;;;;;;3.47;0.75;;;;;;;;;;10325454;28;20033;-63
2021/04/21 10:48:09;;;;;;;7.63;1.45;;;;;;;;;;10318417;28;20051;-62
2021/04/21 10:53:19;;;;;;;6.60;0.90;;;;;;;;;;10328876;28;20505;-62
2021/04/21 10:58:17;;;;;;;5.25;0.93;;;;;;;;;;10314548;28;20033;-62
2021/04/21 11:03:28;;;;;;;2.00;0.57;;;;;;;;;;10338463;28;20048;-62
2021/04/21 11:08:26;;;;;;;3.67;0.95;;;;;;;;;;10326705;28;20033;-62
2021/04/21 11:13:24;;;;;;;5.50;0.85;;;;;;;;;;10334531;28;20033;-62
2021/04/21 11:18:31;;;;;;;3.13;0.70;;;;;;;;;;10335235;28;20033;-62
2021/04/21 11:23:52;;;;;;;7.00;1.05;;;;;;;;;;10319942;28;20041;-63
2021/04/21 11:28:59;;;;;;;6.63;1.25;;;;;;;;;;10329587;28;20036;-63
2021/04/21 11:33:57;;;;;;;2.92;0.90;;;;;;;;;;10306277;28;20037;-63
2021/04/21 11:38:54;;;;;;;5.03;0.82;;;;;;;;;;10322863;28;20053;-63
2021/04/21 11:43:51;;;;;;;2.33;0.50;;;;;;;;;;10333083;28;20379;-63
2021/04/21 11:48:49;;;;;;;8.77;1.07;;;;;;;;;;10323630;28;20364;-63
2021/04/21 11:53:46;;;;;;;2.17;0.80;;;;;;;;;;10331012;28;20043;-63
2021/04/21 11:58:49;;;;;;;5.07;1.08;;;;;;;;;;10323685;28;20083;-63
2021/04/21 12:03:48;;;;;;;6.03;1.73;;;;;;;;;;10324417;28;20446;-63
2021/04/21 12:08:47;;;;;;;4.20;0.93;;;;;;;;;;10308920;28;20438;-63
2021/04/21 12:13:46;;;;;;;8.25;1.30;;;;;;;;;;10331009;28;20060;-63
2021/04/21 12:18:51;;;;;;;2.53;0.73;;;;;;;;;;10287113;28;20032;-63
2021/04/21 12:23:53;;;;;;;1.15;0.93;;;;;;;;;;10311156;28;20036;-63
2021/04/21 12:28:55;;;;;;;1.25;0.40;;;;;;;;;;10320551;28;20689;-63
2021/04/21 12:33:54;;;;;;;3.13;1.48;;;;;;;;;;10321517;28;20025;-63
2021/04/21 12:39:09;;;;;;;8.50;1.15;;;;;;;;;;10298492;28;20033;-63
2021/04/21 12:44:13;;;;;;;3.40;0.98;;;;;;;;;;10323582;28;20075;-63
2021/04/21 12:49:10;;;;;;;8.25;1.40;;;;;;;;;;10323879;28;20033;-63
2021/04/21 12:54:28;;;;;;;2.70;1.17;;;;;;;;;;10330158;28;20037;-63
2021/04/21 12:59:25;;;;;;;5.88;1.10;;;;;;;;;;10319592;28;20033;-63
2021/04/21 13:04:33;;;;;;;2.00;0.97;;;;;;;;;;10310664;28;20032;-66
2021/04/21 13:09:31;;;;;;;3.53;1.10;;;;;;;;;;10301399;28;20022;-66
2021/04/21 13:14:36;;;;;;;6.20;1.23;;;;;;;;;;10331638;28;20334;-66
2021/04/21 13:19:35;;;;;;;3.83;1.25;;;;;;;;;;10319080;28;20279;-65
2021/04/21 13:24:47;;;;;;;2.75;0.55;;;;;;;;;;10316603;28;20029;-65
2021/04/21 13:29:53;;;;;;;2.15;0.60;;;;;;;;;;10307737;28;20041;-66
2021/04/21 13:34:51;;;;;;;4.68;0.80;;;;;;;;;;10327128;28;20407;-66
2021/04/21 13:39:57;;;;;;;2.77;0.87;;;;;;;;;;10317615;28;20056;-65
2021/04/21 13:44:55;;;;;;;29.13;11.00;;;;;;;;;;10323948;28;20081;-66
2021/04/21 13:49:53;;;;;;;62.95;24.15;;;;;;;;;;10325521;28;20127;-66
2021/04/21 13:54:50;;;;;;;62.40;26.53;;;;;;;;;;10329475;28;20044;-66
2021/04/21 13:59:48;;;;;;;48.63;17.00;;;;;;;;;;10326014;28;20134;-66
2021/04/21 14:04:45;;;;;;;36.03;16.83;;;;;;;;;;10327849;28;20060;-66
2021/04/21 14:09:43;;;;;;;32.97;12.90;;;;;;;;;;10315066;28;20025;-66
2021/04/21 14:14:40;;;;;;;26.97;9.60;;;;;;;;;;10316533;28;20127;-66
2021/04/21 14:19:37;;;;;;;22.63;7.97;;;;;;;;;;10306474;28;20033;-65
2021/04/21 14:24:35;;;;;;;14.80;7.10;;;;;;;;;;10312686;28;20340;-66
2021/04/21 14:29:32;;;;;;;16.07;6.57;;;;;;;;;;10313976;28;20033;-65
2021/04/21 14:34:30;;;;;;;13.53;4.50;;;;;;;;;;10314628;28;20048;-65
2021/04/21 14:39:27;;;;;;;12.03;4.43;;;;;;;;;;10322626;28;20064;-66
2021/04/21 14:44:25;;;;;;;6.23;2.70;;;;;;;;;;10314275;28;20454;-66
2021/04/21 14:49:22;;;;;;;7.73;2.87;;;;;;;;;;10326518;28;20495;-66
2021/04/21 14:54:20;;;;;;;1.83;1.23;;;;;;;;;;10299091;28;20040;-66
2021/04/21 14:59:18;;;;;;;7.10;2.25;;;;;;;;;;10318694;28;20470;-65
2021/04/21 15:04:15;;;;;;;8.47;1.20;;;;;;;;;;10315187;28;20071;-65
2021/04/21 15:09:14;;;;;;;8.30;1.93;;;;;;;;;;10311653;28;20025;-66
2021/04/21 15:14:11;;;;;;;4.25;1.60;;;;;;;;;;10324429;28;20566;-66
2021/04/21 15:19:09;;;;;;;3.07;1.20;;;;;;;;;;10295553;28;20127;-65
2021/04/21 15:24:07;;;;;;;9.43;1.80;;;;;;;;;;10326297;28;20296;-65
2021/04/21 15:29:05;;;;;;;4.82;0.88;;;;;;;;;;10317563;28;20489;-65
2021/04/21 15:34:03;;;;;;;9.48;1.70;;;;;;;;;;10316257;28;20033;-65
2021/04/21 15:39:01;;;;;;;1.98;0.95;;;;;;;;;;10327484;28;20037;-65
2021/04/21 15:43:58;;;;;;;5.53;1.60;;;;;;;;;;10316331;28;20660;-62
2021/04/21 15:48:56;;;;;;;10.77;1.73;;;;;;;;;;10326793;28;20036;-63
2021/04/21 15:53:54;;;;;;;5.20;0.93;;;;;;;;;;10321829;28;20045;-62
2021/04/21 15:58:52;;;;;;;7.15;1.30;;;;;;;;;;10316253;28;20037;-62
2021/04/21 16:03:51;;;;;;;3.60;1.88;;;;;;;;;;10314011;28;20052;-62
2021/04/21 16:08:49;;;;;;;10.18;2.22;;;;;;;;;;10321069;28;20029;-63
2021/04/21 16:13:46;;;;;;;7.20;1.10;;;;;;;;;;10326634;28;20032;-63
2021/04/21 16:18:44;;;;;;;1.83;0.70;;;;;;;;;;10323868;28;20291;-62
2021/04/21 16:23:41;;;;;;;16.93;2.37;;;;;;;;;;10317745;28;20045;-62
2021/04/21 16:28:39;;;;;;;5.87;1.20;;;;;;;;;;10327791;28;20235;-63
2021/04/21 16:33:36;;;;;;;8.47;1.47;;;;;;;;;;10325128;28;20079;-61
2021/04/21 16:38:34;;;;;;;7.33;1.20;;;;;;;;;;10331049;28;20078;-62
2021/04/21 16:43:33;;;;;;;35.47;12.93;;;;;;;;;;10320500;28;20021;-62
2021/04/21 16:48:31;;;;;;;86.47;26.95;;;;;;;;;;10324495;28;20037;-61
2021/04/21 16:53:28;;;;;;;79.80;27.77;;;;;;;;;;10318581;28;20037;-62
2021/04/21 16:58:25;;;;;;;68.23;25.33;;;;;;;;;;10319373;28;20037;-62
2021/04/21 17:03:23;;;;;;;60.03;19.63;;;;;;;;;;10322222;28;20341;-62
2021/04/21 17:08:21;;;;;;;30.07;11.30;;;;;;;;;;10297289;28;20032;-62
2021/04/21 17:13:18;;;;;;;20.17;7.93;;;;;;;;;;10327210;28;20411;-62
2021/04/21 17:18:17;;;;;;;17.03;7.87;;;;;;;;;;10321757;28;20033;-62
2021/04/21 17:23:14;;;;;;;21.50;6.90;;;;;;;;;;10297230;28;20049;-62
2021/04/21 17:28:12;;;;;;;16.77;5.97;;;;;;;;;;10295713;28;20029;-62
2021/04/21 17:33:10;;;;;;;9.65;3.47;;;;;;;;;;10326671;28;20029;-62
2021/04/21 17:38:08;;;;;;;7.40;3.25;;;;;;;;;;10310829;28;20029;-62
2021/04/21 17:43:09;;;;;;;10.43;3.53;;;;;;;;;;10318246;28;20017;-62
2021/04/21 17:48:08;;;;;;;9.68;2.60;;;;;;;;;;10292383;28;20051;-62
2021/04/21 17:53:06;;;;;;;6.80;2.03;;;;;;;;;;10310642;28;20036;-62
2021/04/21 17:58:04;;;;;;;11.23;2.17;;;;;;;;;;10313030;28;20483;-62
2021/04/21 18:03:02;;;;;;;11.73;1.67;;;;;;;;;;10324921;28;20848;-62
2021/04/21 18:08:00;;;;;;;9.00;1.87;;;;;;;;;;10284092;28;20159;-62
2021/04/21 18:12:57;;;;;;;6.53;1.53;;;;;;;;;;10320945;28;20271;-61
2021/04/21 18:17:55;;;;;;;8.67;2.37;;;;;;;;;;10318904;28;20052;-62
2021/04/21 18:22:52;;;;;;;6.73;1.83;;;;;;;;;;10309924;28;20025;-61
2021/04/21 18:27:50;;;;;;;6.97;1.77;;;;;;;;;;10317176;28;20407;-62
2021/04/21 18:32:47;;;;;;;4.88;1.55;;;;;;;;;;10323937;28;20506;-61
2021/04/21 18:37:46;;;;;;;3.37;1.33;;;;;;;;;;10312142;28;20147;-65
2021/04/21 18:42:43;;;;;;;;;;;;;;;;;;10323823;28;20048;-61
2021/04/21 18:47:41;;;;;;;4.78;2.08;;;;;;;;;;10325793;28;20381;-62
2021/04/21 18:52:38;;;;;;;11.07;1.67;;;;;;;;;;10328672;28;20032;-62
2021/04/21 18:57:36;;;;;;;13.07;2.23;;;;;;;;;;10322219;28;20048;-61
2021/04/21 19:02:34;;;;;;;2.60;1.43;;;;;;;;;;10323231;28;20107;-62
2021/04/21 19:07:31;;;;;;;2.87;1.33;;;;;;;;;;10321295;28;20040;-61
2021/04/21 19:12:29;;;;;;;7.37;2.20;;;;;;;;;;10293790;28;20483;-62
2021/04/21 19:17:26;;;;;;;6.70;1.63;;;;;;;;;;10321448;28;20026;-62
2021/04/21 19:22:24;;;;;;;6.90;1.70;;;;;;;;;;10323691;28;20048;-62
2021/04/21 19:27:25;;;;;;;5.13;2.67;;;;;;;;;;10322813;28;20334;-62
2021/04/21 19:32:22;;;;;;;4.88;1.83;;;;;;;;;;10320240;28;20387;-61
2021/04/21 19:37:20;;;;;;;7.87;1.87;;;;;;;;;;10324486;28;20395;-62
2021/04/21 19:42:19;;;;;;;4.43;2.10;;;;;;;;;;10319499;28;20402;-61
2021/04/21 19:47:17;;;;;;;7.50;2.78;;;;;;;;;;10317953;28;20407;-63
2021/04/21 19:52:15;;;;;;;6.95;2.75;;;;;;;;;;10324429;28;20567;-62
2021/04/21 19:57:12;;;;;;;5.63;2.33;;;;;;;;;;10296593;28;20033;-65
2021/04/21 20:02:10;;;;;;;8.73;2.77;;;;;;;;;;10303228;28;20665;-62
2021/04/21 20:07:08;;;;;;;7.47;2.38;;;;;;;;;;10305787;28;20128;-62
2021/04/21 20:12:05;;;;;;;3.27;2.00;;;;;;;;;;10314731;28;20102;-61
2021/04/21 20:17:05;;;;;;;14.70;2.67;;;;;;;;;;10326795;28;20105;-62
2021/04/21 20:22:03;;;;;;;8.43;3.03;;;;;;;;;;10314465;28;20047;-62
2021/04/21 20:27:00;;;;;;;6.43;2.50;;;;;;;;;;10299943;28;20041;-62
2021/04/21 20:31:59;;;;;;;3.77;1.87;;;;;;;;;;10310249;28;20447;-62
2021/04/21 20:36:56;;;;;;;10.30;3.13;;;;;;;;;;10325284;28;20045;-62
2021/04/21 20:41:54;;;;;;;6.57;2.20;;;;;;;;;;10315577;28;20040;-61
2021/04/21 20:46:52;;;;;;;8.53;1.97;;;;;;;;;;10285686;28;20041;-61
2021/04/21 20:51:49;;;;;;;11.73;2.10;;;;;;;;;;10306151;28;20071;-62
2021/04/21 20:56:47;;;;;;;8.10;2.33;;;;;;;;;;10317831;28;20041;-62
2021/04/21 21:01:44;;;;;;;6.63;1.87;;;;;;;;;;10323361;28;20032;-62
2021/04/21 21:06:42;;;;;;;14.57;2.57;;;;;;;;;;10293565;28;20036;-62
2021/04/21 21:11:39;;;;;;;4.13;1.70;;;;;;;;;;10290336;28;20399;-62
2021/04/21 21:16:36;;;;;;;2.27;0.80;;;;;;;;;;10323248;28;20039;-62
2021/04/21 21:21:34;;;;;;;9.23;1.83;;;;;;;;;;10323804;28;20037;-61
2021/04/21 21:26:31;;;;;;;3.00;1.30;;;;;;;;;;10314859;28;20079;-61
2021/04/21 21:31:29;;;;;;;6.73;0.80;;;;;;;;;;10323415;28;20120;-62
2021/04/21 21:36:26;;;;;;;9.40;1.77;;;;;;;;;;10324814;28;20032;-61
2021/04/21 21:41:24;;;;;;;5.93;1.80;;;;;;;;;;10313339;28;20498;-62
2021/04/21 21:46:21;;;;;;;7.00;2.73;;;;;;;;;;10321492;28;20148;-61
2021/04/21 21:51:19;;;;;;;3.20;0.83;;;;;;;;;;10313710;28;20464;-62
2021/04/21 21:56:16;;;;;;;8.03;2.07;;;;;;;;;;10316240;28;20407;-62
2021/04/21 22:01:14;;;;;;;7.63;1.37;;;;;;;;;;10298505;28;20032;-61
2021/04/21 22:06:11;;;;;;;5.33;1.13;;;;;;;;;;10316689;28;20678;-62
2021/04/21 22:11:10;;;;;;;2.27;1.03;;;;;;;;;;10303880;28;20029;-62
2021/04/21 22:16:07;;;;;;;3.58;0.82;;;;;;;;;;10324181;28;20057;-61
2021/04/21 22:21:05;;;;;;;4.83;1.33;;;;;;;;;;10318956;28;20309;-61
2021/04/21 22:26:04;;;;;;;1.97;1.13;;;;;;;;;;10325115;28;20120;-61
2021/04/21 22:31:01;;;;;;;5.88;1.67;;;;;;;;;;10327952;28;20404;-61
2021/04/21 22:35:59;;;;;;;6.83;1.70;;;;;;;;;;10329837;28;20367;-62
2021/04/21 22:40:57;;;;;;;6.00;1.10;;;;;;;;;;10321688;28;21086;-61
2021/04/21 22:45:54;;;;;;;5.87;1.53;;;;;;;;;;10321961;28;20469;-61
2021/04/21 22:50:52;;;;;;;4.33;1.23;;;;;;;;;;10317086;28;20056;-62
2021/04/21 22:55:50;;;;;;;13.33;1.73;;;;;;;;;;10330020;28;20402;-62
2021/04/21 23:00:49;;;;;;;11.70;2.72;;;;;;;;;;10327703;28;20452;-60
2021/04/21 23:05:46;;;;;;;;;;;;;;;;;;10285110;28;20577;-62
2021/04/21 23:10:44;;;;;;;8.63;1.33;;;;;;;;;;10326278;28;20409;-61
2021/04/21 23:15:41;;;;;;;4.87;1.60;;;;;;;;;;10332477;28;20373;-62
2021/04/21 23:20:39;;;;;;;6.60;1.92;;;;;;;;;;10293664;28;718682;-61
2021/04/21 23:25:36;;;;;;;8.53;1.83;;;;;;;;;;10332890;28;20108;-60
2021/04/21 23:30:34;;;;;;;5.13;1.57;;;;;;;;;;10329546;28;20597;-61
2021/04/21 23:35:31;;;;;;;8.93;1.83;;;;;;;;;;10326672;28;20417;-61
2021/04/21 23:40:29;;;;;;;7.90;1.33;;;;;;;;;;10333905;28;20041;-62
2021/04/21 23:45:26;;;;;;;4.67;1.13;;;;;;;;;;10327802;28;20041;-62
2021/04/21 23:50:23;;;;;;;6.93;2.00;;;;;;;;;;10331384;28;20083;-61
2021/04/21 23:55:21;;;;;;;11.43;2.00;;;;;;;;;;10324930;28;20048;-61
